sensor_id;sensor_type;location;lat;lon;timestamp;temperature;humidity
22002;DHT22;11165;51.278;12.398;2022-08-06T00:02:11;17.70;99.90
22002;DHT22;11165;51.278;12.398;2022-08-06T00:04:37;17.70;99.90
22002;DHT22;11165;51.278;12.398;2022-08-06T00:07:03;17.70;99.90
22002;DHT22;11165;51.278;12.398;2022-08-06T00:09:28;17.60;99.90
22002;DHT22;11165;51.278;12.398;2022-08-06T00:11:59;17.60;99.90
22002;DHT22;11165;51.278;12.398;2022-08-06T00:14:26;17.60;99.90
22002;DHT22;11165;51.278;12.398;2022-08-06T00:16:51;17.60;99.90
22002;DHT22;11165;51.278;12.398;2022-08-06T00:19:17;17.60;99.90
22002;DHT22;11165;51.278;12.398;2022-08-06T00:21:43;17.70;99.90
22002;DHT22;11165;51.278;12.398;2022-08-06T00:24:08;17.70;99.90
22002;DHT22;11165;51.278;12.398;2022-08-06T00:26:34;17.60;99.90
22002;DHT22;11165;51.278;12.398;2022-08-06T00:28:59;17.50;99.90
22002;DHT22;11165;51.278;12.398;2022-08-06T00:31:25;17.50;99.90
22002;DHT22;11165;51.278;12.398;2022-08-06T00:33:51;17.40;99.90
22002;DHT22;11165;51.278;12.398;2022-08-06T00:36:16;17.40;99.90
22002;DHT22;11165;51.278;12.398;2022-08-06T00:38:42;17.30;99.90
22002;DHT22;11165;51.278;12.398;2022-08-06T00:41:07;17.30;99.90
22002;DHT22;11165;51.278;12.398;2022-08-06T00:43:33;17.20;99.90
22002;DHT22;11165;51.278;12.398;2022-08-06T00:45:58;17.20;99.90
22002;DHT22;11165;51.278;12.398;2022-08-06T00:48:24;17.20;99.90
22002;DHT22;11165;51.278;12.398;2022-08-06T00:50:50;17.20;99.90
22002;DHT22;11165;51.278;12.398;2022-08-06T00:53:15;17.10;99.90
22002;DHT22;11165;51.278;12.398;2022-08-06T00:55:41;17.10;99.90
22002;DHT22;11165;51.278;12.398;2022-08-06T00:58:07;17.10;99.90
22002;DHT22;11165;51.278;12.398;2022-08-06T01:00:34;17.10;99.90
22002;DHT22;11165;51.278;12.398;2022-08-06T01:02:59;17.10;99.90
22002;DHT22;11165;51.278;12.398;2022-08-06T01:05:25;17.10;99.90
22002;DHT22;11165;51.278;12.398;2022-08-06T01:07:51;17.00;99.90
22002;DHT22;11165;51.278;12.398;2022-08-06T01:10:16;17.00;99.90
22002;DHT22;11165;51.278;12.398;2022-08-06T01:12:42;17.00;99.90
22002;DHT22;11165;51.278;12.398;2022-08-06T01:15:08;16.90;99.90
22002;DHT22;11165;51.278;12.398;2022-08-06T01:17:37;16.90;99.90
22002;DHT22;11165;51.278;12.398;2022-08-06T01:20:20;16.80;99.90
22002;DHT22;11165;51.278;12.398;2022-08-06T01:23:24;16.80;99.90
22002;DHT22;11165;51.278;12.398;2022-08-06T01:28:46;16.80;99.90
22002;DHT22;11165;51.278;12.398;2022-08-06T01:31:19;16.70;99.90
22002;DHT22;11165;51.278;12.398;2022-08-06T01:33:53;16.70;99.90
22002;DHT22;11165;51.278;12.398;2022-08-06T01:36:36;16.70;99.90
22002;DHT22;11165;51.278;12.398;2022-08-06T01:39:04;16.70;99.90
22002;DHT22;11165;51.278;12.398;2022-08-06T01:41:36;16.70;99.90
22002;DHT22;11165;51.278;12.398;2022-08-06T01:44:06;16.60;99.90
22002;DHT22;11165;51.278;12.398;2022-08-06T01:46:45;16.60;99.90
22002;DHT22;11165;51.278;12.398;2022-08-06T01:49:11;16.60;99.90
22002;DHT22;11165;51.278;12.398;2022-08-06T01:51:39;16.60;99.90
22002;DHT22;11165;51.278;12.398;2022-08-06T01:54:08;16.60;99.90
22002;DHT22;11165;51.278;12.398;2022-08-06T01:56:37;16.60;99.90
22002;DHT22;11165;51.278;12.398;2022-08-06T01:59:05;16.50;99.90
22002;DHT22;11165;51.278;12.398;2022-08-06T02:01:33;16.50;99.90
22002;DHT22;11165;51.278;12.398;2022-08-06T02:04:01;16.50;99.90
22002;DHT22;11165;51.278;12.398;2022-08-06T02:06:37;16.50;99.90
22002;DHT22;11165;51.278;12.398;2022-08-06T02:09:08;16.50;99.90
22002;DHT22;11165;51.278;12.398;2022-08-06T02:11:35;16.40;99.90
22002;DHT22;11165;51.278;12.398;2022-08-06T02:14:02;16.40;99.90
22002;DHT22;11165;51.278;12.398;2022-08-06T02:16:33;16.40;99.90
22002;DHT22;11165;51.278;12.398;2022-08-06T02:19:00;16.30;99.90
22002;DHT22;11165;51.278;12.398;2022-08-06T02:21:27;16.30;99.90
22002;DHT22;11165;51.278;12.398;2022-08-06T02:23:54;16.30;99.90
22002;DHT22;11165;51.278;12.398;2022-08-06T02:26:23;16.30;99.90
22002;DHT22;11165;51.278;12.398;2022-08-06T02:28:50;16.30;99.90
22002;DHT22;11165;51.278;12.398;2022-08-06T02:31:17;16.30;99.90
22002;DHT22;11165;51.278;12.398;2022-08-06T02:33:43;16.30;99.90
22002;DHT22;11165;51.278;12.398;2022-08-06T02:36:19;16.20;99.90
22002;DHT22;11165;51.278;12.398;2022-08-06T02:38:50;16.20;99.90
22002;DHT22;11165;51.278;12.398;2022-08-06T02:41:30;16.10;99.90
22002;DHT22;11165;51.278;12.398;2022-08-06T02:44:15;16.10;99.90
22002;DHT22;11165;51.278;12.398;2022-08-06T02:47:07;16.00;99.90
22002;DHT22;11165;51.278;12.398;2022-08-06T02:49:33;16.00;99.90
22002;DHT22;11165;51.278;12.398;2022-08-06T02:52:07;15.90;99.90
22002;DHT22;11165;51.278;12.398;2022-08-06T02:55:09;15.90;99.90
22002;DHT22;11165;51.278;12.398;2022-08-06T02:57:36;15.80;99.90
22002;DHT22;11165;51.278;12.398;2022-08-06T03:00:06;15.70;99.90
22002;DHT22;11165;51.278;12.398;2022-08-06T03:02:35;15.70;99.90
22002;DHT22;11165;51.278;12.398;2022-08-06T03:05:03;15.70;99.90
22002;DHT22;11165;51.278;12.398;2022-08-06T03:07:32;15.70;99.90
22002;DHT22;11165;51.278;12.398;2022-08-06T03:10:00;15.60;99.90
22002;DHT22;11165;51.278;12.398;2022-08-06T03:12:26;15.60;99.90
22002;DHT22;11165;51.278;12.398;2022-08-06T03:14:53;15.50;99.90
22002;DHT22;11165;51.278;12.398;2022-08-06T03:17:20;15.50;99.90
22002;DHT22;11165;51.278;12.398;2022-08-06T03:19:47;15.50;99.90
22002;DHT22;11165;51.278;12.398;2022-08-06T03:22:14;15.50;99.90
22002;DHT22;11165;51.278;12.398;2022-08-06T03:24:42;15.50;99.90
22002;DHT22;11165;51.278;12.398;2022-08-06T03:27:10;15.40;99.90
22002;DHT22;11165;51.278;12.398;2022-08-06T03:29:37;15.40;99.90
22002;DHT22;11165;51.278;12.398;2022-08-06T03:32:06;15.30;99.90
22002;DHT22;11165;51.278;12.398;2022-08-06T03:34:33;15.30;99.90
22002;DHT22;11165;51.278;12.398;2022-08-06T03:37:01;15.30;99.90
22002;DHT22;11165;51.278;12.398;2022-08-06T03:39:27;15.30;99.90
22002;DHT22;11165;51.278;12.398;2022-08-06T03:41:55;15.20;99.90
22002;DHT22;11165;51.278;12.398;2022-08-06T03:44:21;15.10;99.90
22002;DHT22;11165;51.278;12.398;2022-08-06T03:46:54;15.10;99.90
22002;DHT22;11165;51.278;12.398;2022-08-06T03:49:29;15.20;99.90
22002;DHT22;11165;51.278;12.398;2022-08-06T03:51:58;15.20;99.90
22002;DHT22;11165;51.278;12.398;2022-08-06T03:54:28;15.10;99.90
22002;DHT22;11165;51.278;12.398;2022-08-06T03:56:57;15.10;99.90
22002;DHT22;11165;51.278;12.398;2022-08-06T03:59:25;15.00;99.90
22002;DHT22;11165;51.278;12.398;2022-08-06T04:01:53;15.00;99.90
22002;DHT22;11165;51.278;12.398;2022-08-06T04:04:22;15.00;99.90
22002;DHT22;11165;51.278;12.398;2022-08-06T04:06:49;15.00;99.90
22002;DHT22;11165;51.278;12.398;2022-08-06T04:09:15;15.00;99.90
22002;DHT22;11165;51.278;12.398;2022-08-06T04:11:42;15.00;99.90
22002;DHT22;11165;51.278;12.398;2022-08-06T04:14:09;15.00;99.90
22002;DHT22;11165;51.278;12.398;2022-08-06T04:16:36;15.00;99.90
22002;DHT22;11165;51.278;12.398;2022-08-06T04:19:04;15.00;99.90
22002;DHT22;11165;51.278;12.398;2022-08-06T04:21:30;15.00;99.90
22002;DHT22;11165;51.278;12.398;2022-08-06T04:23:56;15.00;99.90
22002;DHT22;11165;51.278;12.398;2022-08-06T04:26:23;15.00;99.90
22002;DHT22;11165;51.278;12.398;2022-08-06T04:28:52;15.00;99.90
22002;DHT22;11165;51.278;12.398;2022-08-06T04:31:19;15.00;99.90
22002;DHT22;11165;51.278;12.398;2022-08-06T04:33:47;15.00;99.90
22002;DHT22;11165;51.278;12.398;2022-08-06T04:36:13;15.00;99.90
22002;DHT22;11165;51.278;12.398;2022-08-06T04:38:39;15.00;99.90
22002;DHT22;11165;51.278;12.398;2022-08-06T04:41:06;15.10;99.90
22002;DHT22;11165;51.278;12.398;2022-08-06T04:43:32;15.00;99.90
22002;DHT22;11165;51.278;12.398;2022-08-06T04:45:58;15.00;99.90
22002;DHT22;11165;51.278;12.398;2022-08-06T04:48:24;14.90;99.90
22002;DHT22;11165;51.278;12.398;2022-08-06T04:50:51;15.00;99.90
22002;DHT22;11165;51.278;12.398;2022-08-06T04:53:18;15.00;99.90
22002;DHT22;11165;51.278;12.398;2022-08-06T04:55:45;15.00;99.90
22002;DHT22;11165;51.278;12.398;2022-08-06T04:58:13;15.00;99.90
22002;DHT22;11165;51.278;12.398;2022-08-06T05:00:40;15.00;99.90
22002;DHT22;11165;51.278;12.398;2022-08-06T05:03:06;15.10;99.90
22002;DHT22;11165;51.278;12.398;2022-08-06T05:05:39;15.10;99.90
22002;DHT22;11165;51.278;12.398;2022-08-06T05:08:07;15.20;99.90
22002;DHT22;11165;51.278;12.398;2022-08-06T05:10:54;15.20;99.90
22002;DHT22;11165;51.278;12.398;2022-08-06T05:13:22;15.20;99.90
22002;DHT22;11165;51.278;12.398;2022-08-06T05:15:57;15.10;99.90
22002;DHT22;11165;51.278;12.398;2022-08-06T05:18:30;15.20;99.90
22002;DHT22;11165;51.278;12.398;2022-08-06T05:21:00;15.20;99.90
22002;DHT22;11165;51.278;12.398;2022-08-06T05:23:45;15.20;99.90
22002;DHT22;11165;51.278;12.398;2022-08-06T05:26:12;15.20;99.90
22002;DHT22;11165;51.278;12.398;2022-08-06T05:28:42;15.20;99.90
22002;DHT22;11165;51.278;12.398;2022-08-06T05:31:08;15.30;99.90
22002;DHT22;11165;51.278;12.398;2022-08-06T05:33:36;15.30;99.90
22002;DHT22;11165;51.278;12.398;2022-08-06T05:36:02;15.30;99.90
22002;DHT22;11165;51.278;12.398;2022-08-06T05:38:30;15.30;99.90
22002;DHT22;11165;51.278;12.398;2022-08-06T05:40:55;15.30;99.90
22002;DHT22;11165;51.278;12.398;2022-08-06T05:43:22;15.30;99.90
22002;DHT22;11165;51.278;12.398;2022-08-06T05:45:49;15.30;99.90
22002;DHT22;11165;51.278;12.398;2022-08-06T05:48:18;15.30;99.90
22002;DHT22;11165;51.278;12.398;2022-08-06T05:51:06;15.30;99.90
22002;DHT22;11165;51.278;12.398;2022-08-06T05:53:40;15.30;99.90
22002;DHT22;11165;51.278;12.398;2022-08-06T05:56:11;15.40;99.90
22002;DHT22;11165;51.278;12.398;2022-08-06T05:58:52;15.40;99.90
22002;DHT22;11165;51.278;12.398;2022-08-06T06:01:19;15.50;99.90
22002;DHT22;11165;51.278;12.398;2022-08-06T06:03:45;15.50;99.90
22002;DHT22;11165;51.278;12.398;2022-08-06T06:06:12;15.50;99.90
22002;DHT22;11165;51.278;12.398;2022-08-06T06:08:37;15.60;99.90
22002;DHT22;11165;51.278;12.398;2022-08-06T06:11:05;15.70;99.90
22002;DHT22;11165;51.278;12.398;2022-08-06T06:13:33;15.90;99.90
22002;DHT22;11165;51.278;12.398;2022-08-06T06:16:31;16.00;99.90
22002;DHT22;11165;51.278;12.398;2022-08-06T06:19:21;16.00;99.90
22002;DHT22;11165;51.278;12.398;2022-08-06T06:24:21;16.10;99.90
22002;DHT22;11165;51.278;12.398;2022-08-06T06:27:19;16.20;99.90
22002;DHT22;11165;51.278;12.398;2022-08-06T06:37:57;16.40;99.90
22002;DHT22;11165;51.278;12.398;2022-08-06T06:45:34;16.60;99.90
22002;DHT22;11165;51.278;12.398;2022-08-06T06:50:30;16.60;99.90
22002;DHT22;11165;51.278;12.398;2022-08-06T06:52:57;16.60;99.90
22002;DHT22;11165;51.278;12.398;2022-08-06T06:57:58;17.10;99.90
22002;DHT22;11165;51.278;12.398;2022-08-06T07:00:27;17.00;99.90
22002;DHT22;11165;51.278;12.398;2022-08-06T07:02:54;16.90;99.90
22002;DHT22;11165;51.278;12.398;2022-08-06T07:05:22;17.00;99.90
22002;DHT22;11165;51.278;12.398;2022-08-06T07:07:50;17.00;99.90
22002;DHT22;11165;51.278;12.398;2022-08-06T07:10:17;17.40;99.90
22002;DHT22;11165;51.278;12.398;2022-08-06T07:12:44;17.80;99.90
22002;DHT22;11165;51.278;12.398;2022-08-06T07:15:12;18.30;99.90
22002;DHT22;11165;51.278;12.398;2022-08-06T07:17:39;18.50;99.90
22002;DHT22;11165;51.278;12.398;2022-08-06T07:20:08;18.20;99.90
22002;DHT22;11165;51.278;12.398;2022-08-06T07:22:35;18.10;99.90
22002;DHT22;11165;51.278;12.398;2022-08-06T07:25:04;18.40;99.90
22002;DHT22;11165;51.278;12.398;2022-08-06T07:27:34;18.60;99.90
22002;DHT22;11165;51.278;12.398;2022-08-06T07:30:01;19.10;99.90
22002;DHT22;11165;51.278;12.398;2022-08-06T07:32:30;19.20;99.90
22002;DHT22;11165;51.278;12.398;2022-08-06T07:34:57;19.00;99.90
22002;DHT22;11165;51.278;12.398;2022-08-06T07:37:25;19.00;99.90
22002;DHT22;11165;51.278;12.398;2022-08-06T07:39:52;19.00;99.90
22002;DHT22;11165;51.278;12.398;2022-08-06T07:42:19;19.00;99.90
22002;DHT22;11165;51.278;12.398;2022-08-06T07:44:48;19.20;99.90
22002;DHT22;11165;51.278;12.398;2022-08-06T07:47:18;19.20;99.90
22002;DHT22;11165;51.278;12.398;2022-08-06T07:49:52;19.50;99.90
22002;DHT22;11165;51.278;12.398;2022-08-06T07:52:19;19.40;99.90
22002;DHT22;11165;51.278;12.398;2022-08-06T07:54:46;20.10;99.90
22002;DHT22;11165;51.278;12.398;2022-08-06T07:57:12;20.00;99.90
22002;DHT22;11165;51.278;12.398;2022-08-06T07:59:39;20.00;99.90
22002;DHT22;11165;51.278;12.398;2022-08-06T08:02:05;19.90;99.90
22002;DHT22;11165;51.278;12.398;2022-08-06T08:04:34;20.20;99.90
22002;DHT22;11165;51.278;12.398;2022-08-06T08:07:20;20.90;99.90
22002;DHT22;11165;51.278;12.398;2022-08-06T08:09:46;20.70;99.90
22002;DHT22;11165;51.278;12.398;2022-08-06T08:12:15;20.90;99.90
22002;DHT22;11165;51.278;12.398;2022-08-06T08:14:43;20.50;99.90
22002;DHT22;11165;51.278;12.398;2022-08-06T08:17:09;20.40;99.90
22002;DHT22;11165;51.278;12.398;2022-08-06T08:19:34;20.80;99.70
22002;DHT22;11165;51.278;12.398;2022-08-06T08:22:10;20.90;98.80
22002;DHT22;11165;51.278;12.398;2022-08-06T08:24:38;20.70;96.30
22002;DHT22;11165;51.278;12.398;2022-08-06T08:27:05;20.00;97.30
22002;DHT22;11165;51.278;12.398;2022-08-06T08:29:34;19.80;98.40
22002;DHT22;11165;51.278;12.398;2022-08-06T08:32:00;20.40;97.90
22002;DHT22;11165;51.278;12.398;2022-08-06T08:34:26;20.60;97.60
22002;DHT22;11165;51.278;12.398;2022-08-06T08:36:52;20.60;94.90
22002;DHT22;11165;51.278;12.398;2022-08-06T08:39:18;20.30;96.30
22002;DHT22;11165;51.278;12.398;2022-08-06T08:41:49;19.90;97.10
22002;DHT22;11165;51.278;12.398;2022-08-06T08:44:25;20.90;95.60
22002;DHT22;11165;51.278;12.398;2022-08-06T08:46:52;20.90;94.30
22002;DHT22;11165;51.278;12.398;2022-08-06T08:51:51;21.30;93.10
22002;DHT22;11165;51.278;12.398;2022-08-06T08:54:21;21.40;93.90
22002;DHT22;11165;51.278;12.398;2022-08-06T08:56:47;21.30;93.00
22002;DHT22;11165;51.278;12.398;2022-08-06T08:59:14;21.00;93.10
22002;DHT22;11165;51.278;12.398;2022-08-06T09:01:40;21.10;93.40
22002;DHT22;11165;51.278;12.398;2022-08-06T09:04:07;21.10;92.60
22002;DHT22;11165;51.278;12.398;2022-08-06T09:06:33;21.00;92.40
22002;DHT22;11165;51.278;12.398;2022-08-06T09:09:04;21.20;93.00
22002;DHT22;11165;51.278;12.398;2022-08-06T09:11:31;21.20;92.20
22002;DHT22;11165;51.278;12.398;2022-08-06T09:14:00;21.40;92.70
22002;DHT22;11165;51.278;12.398;2022-08-06T09:16:27;21.30;90.10
22002;DHT22;11165;51.278;12.398;2022-08-06T09:18:53;21.20;92.40
22002;DHT22;11165;51.278;12.398;2022-08-06T09:21:18;21.60;91.60
22002;DHT22;11165;51.278;12.398;2022-08-06T09:23:44;21.90;90.10
22002;DHT22;11165;51.278;12.398;2022-08-06T09:26:10;21.30;91.80
22002;DHT22;11165;51.278;12.398;2022-08-06T09:28:37;20.90;90.80
22002;DHT22;11165;51.278;12.398;2022-08-06T09:31:14;20.60;90.90
22002;DHT22;11165;51.278;12.398;2022-08-06T09:36:19;20.80;91.30
22002;DHT22;11165;51.278;12.398;2022-08-06T09:38:59;21.00;92.30
22002;DHT22;11165;51.278;12.398;2022-08-06T09:41:27;21.50;91.20
22002;DHT22;11165;51.278;12.398;2022-08-06T09:43:54;22.20;85.20
22002;DHT22;11165;51.278;12.398;2022-08-06T09:46:37;22.10;82.20
22002;DHT22;11165;51.278;12.398;2022-08-06T09:49:03;22.10;83.10
22002;DHT22;11165;51.278;12.398;2022-08-06T09:51:30;21.70;85.00
22002;DHT22;11165;51.278;12.398;2022-08-06T09:54:00;21.50;87.30
22002;DHT22;11165;51.278;12.398;2022-08-06T09:56:26;22.10;86.90
22002;DHT22;11165;51.278;12.398;2022-08-06T09:59:01;21.80;83.10
22002;DHT22;11165;51.278;12.398;2022-08-06T10:01:27;21.40;85.00
22002;DHT22;11165;51.278;12.398;2022-08-06T10:03:57;21.10;88.00
22002;DHT22;11165;51.278;12.398;2022-08-06T10:06:23;21.30;86.90
22002;DHT22;11165;51.278;12.398;2022-08-06T10:09:05;21.60;89.80
22002;DHT22;11165;51.278;12.398;2022-08-06T10:11:39;21.80;89.00
22002;DHT22;11165;51.278;12.398;2022-08-06T10:14:24;21.90;86.60
22002;DHT22;11165;51.278;12.398;2022-08-06T10:17:09;21.20;86.60
22002;DHT22;11165;51.278;12.398;2022-08-06T10:19:36;21.20;88.60
22002;DHT22;11165;51.278;12.398;2022-08-06T10:22:11;21.20;86.60
22002;DHT22;11165;51.278;12.398;2022-08-06T10:24:41;22.10;87.70
22002;DHT22;11165;51.278;12.398;2022-08-06T10:27:09;21.90;83.60
22002;DHT22;11165;51.278;12.398;2022-08-06T10:29:40;21.80;82.80
22002;DHT22;11165;51.278;12.398;2022-08-06T10:32:09;21.40;83.10
22002;DHT22;11165;51.278;12.398;2022-08-06T10:34:35;21.00;84.10
22002;DHT22;11165;51.278;12.398;2022-08-06T10:37:05;21.10;84.30
22002;DHT22;11165;51.278;12.398;2022-08-06T10:39:34;21.20;82.40
22002;DHT22;11165;51.278;12.398;2022-08-06T10:42:02;21.40;78.20
22002;DHT22;11165;51.278;12.398;2022-08-06T10:44:28;21.50;80.20
22002;DHT22;11165;51.278;12.398;2022-08-06T10:46:55;21.50;79.90
22002;DHT22;11165;51.278;12.398;2022-08-06T10:49:22;21.80;82.00
22002;DHT22;11165;51.278;12.398;2022-08-06T10:51:48;21.90;78.70
22002;DHT22;11165;51.278;12.398;2022-08-06T10:54:16;21.60;79.80
22002;DHT22;11165;51.278;12.398;2022-08-06T10:56:42;21.30;77.60
22002;DHT22;11165;51.278;12.398;2022-08-06T10:59:08;21.10;76.90
22002;DHT22;11165;51.278;12.398;2022-08-06T11:09:46;22.10;77.20
22002;DHT22;11165;51.278;12.398;2022-08-06T11:15:13;21.80;78.60
22002;DHT22;11165;51.278;12.398;2022-08-06T11:17:49;21.60;79.40
22002;DHT22;11165;51.278;12.398;2022-08-06T11:22:59;21.30;80.10
22002;DHT22;11165;51.278;12.398;2022-08-06T11:28:08;21.30;80.00
22002;DHT22;11165;51.278;12.398;2022-08-06T11:30:50;21.10;78.50
22002;DHT22;11165;51.278;12.398;2022-08-06T11:33:19;21.30;77.90
22002;DHT22;11165;51.278;12.398;2022-08-06T11:35:47;21.70;76.30
22002;DHT22;11165;51.278;12.398;2022-08-06T11:38:16;21.60;75.30
22002;DHT22;11165;51.278;12.398;2022-08-06T11:41:07;21.40;75.50
22002;DHT22;11165;51.278;12.398;2022-08-06T11:43:45;21.70;77.40
22002;DHT22;11165;51.278;12.398;2022-08-06T11:51:37;21.60;76.00
22002;DHT22;11165;51.278;12.398;2022-08-06T11:54:25;21.60;75.00
22002;DHT22;11165;51.278;12.398;2022-08-06T11:59:32;21.90;74.40
22002;DHT22;11165;51.278;12.398;2022-08-06T12:01:59;22.00;74.00
22002;DHT22;11165;51.278;12.398;2022-08-06T12:07:25;21.70;74.50
22002;DHT22;11165;51.278;12.398;2022-08-06T12:10:09;21.80;73.20
22002;DHT22;11165;51.278;12.398;2022-08-06T12:12:47;21.80;74.40
22002;DHT22;11165;51.278;12.398;2022-08-06T12:23:16;21.70;72.80
22002;DHT22;11165;51.278;12.398;2022-08-06T12:25:45;21.80;75.20
22002;DHT22;11165;51.278;12.398;2022-08-06T12:28:13;22.20;73.10
22002;DHT22;11165;51.278;12.398;2022-08-06T12:30:51;22.30;71.40
22002;DHT22;11165;51.278;12.398;2022-08-06T12:33:18;22.40;73.10
22002;DHT22;11165;51.278;12.398;2022-08-06T12:35:55;22.30;73.40
22002;DHT22;11165;51.278;12.398;2022-08-06T12:38:23;22.20;73.50
22002;DHT22;11165;51.278;12.398;2022-08-06T12:41:05;22.10;73.80
22002;DHT22;11165;51.278;12.398;2022-08-06T12:43:33;22.10;73.10
22002;DHT22;11165;51.278;12.398;2022-08-06T12:46:01;22.10;69.30
22002;DHT22;11165;51.278;12.398;2022-08-06T12:48:27;22.10;69.80
22002;DHT22;11165;51.278;12.398;2022-08-06T12:53:29;22.00;70.50
22002;DHT22;11165;51.278;12.398;2022-08-06T12:55:56;21.80;70.10
22002;DHT22;11165;51.278;12.398;2022-08-06T12:58:33;22.00;72.50
22002;DHT22;11165;51.278;12.398;2022-08-06T13:01:01;22.40;72.00
22002;DHT22;11165;51.278;12.398;2022-08-06T13:03:28;22.40;71.90
22002;DHT22;11165;51.278;12.398;2022-08-06T13:05:58;22.50;71.10
22002;DHT22;11165;51.278;12.398;2022-08-06T13:08:25;22.30;70.00
22002;DHT22;11165;51.278;12.398;2022-08-06T13:10:53;22.10;69.00
22002;DHT22;11165;51.278;12.398;2022-08-06T13:13:20;22.20;70.00
22002;DHT22;11165;51.278;12.398;2022-08-06T13:16:06;22.30;68.40
22002;DHT22;11165;51.278;12.398;2022-08-06T13:18:33;22.20;67.80
22002;DHT22;11165;51.278;12.398;2022-08-06T13:20:59;22.20;69.20
22002;DHT22;11165;51.278;12.398;2022-08-06T13:23:32;22.40;70.20
22002;DHT22;11165;51.278;12.398;2022-08-06T13:25:58;22.50;67.60
22002;DHT22;11165;51.278;12.398;2022-08-06T13:28:24;22.20;69.20
22002;DHT22;11165;51.278;12.398;2022-08-06T13:30:50;22.30;70.50
22002;DHT22;11165;51.278;12.398;2022-08-06T13:33:18;22.30;69.60
22002;DHT22;11165;51.278;12.398;2022-08-06T13:35:46;22.70;69.60
22002;DHT22;11165;51.278;12.398;2022-08-06T13:38:26;23.00;69.20
22002;DHT22;11165;51.278;12.398;2022-08-06T13:40:52;22.90;68.40
22002;DHT22;11165;51.278;12.398;2022-08-06T13:43:18;22.70;69.20
22002;DHT22;11165;51.278;12.398;2022-08-06T13:45:44;22.60;69.10
22002;DHT22;11165;51.278;12.398;2022-08-06T13:48:11;22.90;70.00
22002;DHT22;11165;51.278;12.398;2022-08-06T13:50:41;23.00;67.20
22002;DHT22;11165;51.278;12.398;2022-08-06T13:53:08;22.90;67.50
22002;DHT22;11165;51.278;12.398;2022-08-06T13:55:34;22.80;66.20
22002;DHT22;11165;51.278;12.398;2022-08-06T13:58:00;22.80;66.00
22002;DHT22;11165;51.278;12.398;2022-08-06T14:00:26;22.70;66.90
22002;DHT22;11165;51.278;12.398;2022-08-06T14:02:53;22.80;67.00
22002;DHT22;11165;51.278;12.398;2022-08-06T14:05:18;22.80;64.50
22002;DHT22;11165;51.278;12.398;2022-08-06T14:07:44;22.70;65.90
22002;DHT22;11165;51.278;12.398;2022-08-06T14:10:10;23.00;64.90
22002;DHT22;11165;51.278;12.398;2022-08-06T14:12:37;23.10;64.60
22002;DHT22;11165;51.278;12.398;2022-08-06T14:15:03;23.00;64.80
22002;DHT22;11165;51.278;12.398;2022-08-06T14:17:29;22.90;64.10
22002;DHT22;11165;51.278;12.398;2022-08-06T14:19:55;22.70;66.50
22002;DHT22;11165;51.278;12.398;2022-08-06T14:22:20;23.00;67.30
22002;DHT22;11165;51.278;12.398;2022-08-06T14:24:46;23.00;66.60
22002;DHT22;11165;51.278;12.398;2022-08-06T14:27:11;22.80;66.60
22002;DHT22;11165;51.278;12.398;2022-08-06T14:29:37;22.90;67.10
22002;DHT22;11165;51.278;12.398;2022-08-06T14:32:04;22.90;65.40
22002;DHT22;11165;51.278;12.398;2022-08-06T14:34:30;22.80;63.00
22002;DHT22;11165;51.278;12.398;2022-08-06T14:36:55;22.60;63.80
22002;DHT22;11165;51.278;12.398;2022-08-06T14:39:21;22.40;64.90
22002;DHT22;11165;51.278;12.398;2022-08-06T14:41:48;22.80;64.70
22002;DHT22;11165;51.278;12.398;2022-08-06T14:44:32;22.80;64.80
22002;DHT22;11165;51.278;12.398;2022-08-06T14:47:16;23.00;65.00
22002;DHT22;11165;51.278;12.398;2022-08-06T14:49:42;23.20;64.60
22002;DHT22;11165;51.278;12.398;2022-08-06T14:52:08;23.30;65.70
22002;DHT22;11165;51.278;12.398;2022-08-06T14:54:35;23.30;66.20
22002;DHT22;11165;51.278;12.398;2022-08-06T14:57:03;23.40;65.00
22002;DHT22;11165;51.278;12.398;2022-08-06T14:59:29;22.90;64.70
22002;DHT22;11165;51.278;12.398;2022-08-06T15:01:54;23.00;64.90
22002;DHT22;11165;51.278;12.398;2022-08-06T15:04:21;23.10;64.60
22002;DHT22;11165;51.278;12.398;2022-08-06T15:06:47;23.00;65.00
22002;DHT22;11165;51.278;12.398;2022-08-06T15:09:12;23.00;63.80
22002;DHT22;11165;51.278;12.398;2022-08-06T15:11:38;23.00;64.50
22002;DHT22;11165;51.278;12.398;2022-08-06T15:14:04;23.10;62.80
22002;DHT22;11165;51.278;12.398;2022-08-06T15:16:30;23.10;64.90
22002;DHT22;11165;51.278;12.398;2022-08-06T15:18:56;23.10;62.50
22002;DHT22;11165;51.278;12.398;2022-08-06T15:21:22;23.00;61.80
22002;DHT22;11165;51.278;12.398;2022-08-06T15:23:47;23.10;61.70
22002;DHT22;11165;51.278;12.398;2022-08-06T15:26:14;23.00;62.80
22002;DHT22;11165;51.278;12.398;2022-08-06T15:28:40;23.00;63.80
22002;DHT22;11165;51.278;12.398;2022-08-06T15:31:06;23.10;63.10
22002;DHT22;11165;51.278;12.398;2022-08-06T15:33:32;23.00;62.60
22002;DHT22;11165;51.278;12.398;2022-08-06T15:35:58;23.10;63.30
22002;DHT22;11165;51.278;12.398;2022-08-06T15:38:28;23.00;62.70
22002;DHT22;11165;51.278;12.398;2022-08-06T15:40:55;23.10;62.90
22002;DHT22;11165;51.278;12.398;2022-08-06T15:43:21;22.90;62.90
22002;DHT22;11165;51.278;12.398;2022-08-06T15:45:47;22.80;63.90
22002;DHT22;11165;51.278;12.398;2022-08-06T15:48:13;22.90;64.10
22002;DHT22;11165;51.278;12.398;2022-08-06T15:50:42;23.00;64.00
22002;DHT22;11165;51.278;12.398;2022-08-06T15:53:09;23.00;63.40
22002;DHT22;11165;51.278;12.398;2022-08-06T15:55:35;22.80;64.30
22002;DHT22;11165;51.278;12.398;2022-08-06T15:58:01;22.80;64.70
22002;DHT22;11165;51.278;12.398;2022-08-06T16:00:27;22.80;63.50
22002;DHT22;11165;51.278;12.398;2022-08-06T16:02:53;22.80;63.10
22002;DHT22;11165;51.278;12.398;2022-08-06T16:05:19;22.70;63.30
22002;DHT22;11165;51.278;12.398;2022-08-06T16:07:46;22.80;63.80
22002;DHT22;11165;51.278;12.398;2022-08-06T16:10:11;22.80;64.00
22002;DHT22;11165;51.278;12.398;2022-08-06T16:12:37;22.80;63.00
22002;DHT22;11165;51.278;12.398;2022-08-06T16:15:04;22.80;63.10
22002;DHT22;11165;51.278;12.398;2022-08-06T16:17:30;22.70;63.00
22002;DHT22;11165;51.278;12.398;2022-08-06T16:19:55;22.80;63.50
22002;DHT22;11165;51.278;12.398;2022-08-06T16:22:21;22.80;63.40
22002;DHT22;11165;51.278;12.398;2022-08-06T16:24:47;22.80;62.90
22002;DHT22;11165;51.278;12.398;2022-08-06T16:27:13;22.70;62.40
22002;DHT22;11165;51.278;12.398;2022-08-06T16:29:40;22.70;62.10
22002;DHT22;11165;51.278;12.398;2022-08-06T16:32:06;22.60;62.50
22002;DHT22;11165;51.278;12.398;2022-08-06T16:34:32;22.60;62.70